Time;durP1;ratioP1;P1;durP2;ratioP2;P2;SDS_P1;SDS_P2;PMS_P1;PMS_P2;Temp;Humidity;BMP_temperature;BMP_pressure;BME280_temperature;BME280_humidity;BME280_pressure;Samples;Min_cycle;Max_cycle;Signal;HPM_P1;HPM_P2
2021/03/26 00:02:25;;;;;;;3.40;2.20;;;17.50;80.00;;;;;;4986965;28;96917;-48
2021/03/26 00:04:54;;;;;;;3.25;2.88;;;17.60;80.50;;;;;;4966288;28;97857;-52
2021/03/26 00:07:24;;;;;;;3.33;2.17;;;17.60;79.80;;;;;;4986694;28;96078;-50
2021/03/26 00:09:55;;;;;;;2.83;2.30;;;17.70;79.70;;;;;;4984034;28;96011;-44
2021/03/26 00:12:26;;;;;;;3.45;2.53;;;17.70;79.50;;;;;;4987463;28;96681;-45
2021/03/26 00:14:57;;;;;;;3.15;2.75;;;17.70;79.40;;;;;;4983950;28;96242;-50
2021/03/26 00:17:26;;;;;;;2.30;2.10;;;17.80;79.40;;;;;;4986127;28;95879;-48
2021/03/26 00:19:57;;;;;;;3.70;2.20;;;17.80;79.30;;;;;;4984647;28;97105;-48
2021/03/26 00:22:28;;;;;;;4.47;2.65;;;17.80;79.30;;;;;;4984904;28;96680;-51
2021/03/26 00:24:58;;;;;;;3.42;2.30;;;17.90;79.20;;;;;;4982686;28;95816;-48
2021/03/26 00:27:28;;;;;;;4.15;2.60;;;18.00;78.90;;;;;;4985946;28;95780;-50
2021/03/26 00:29:59;;;;;;;2.65;2.40;;;18.10;78.60;;;;;;4983800;28;98605;-48
2021/03/26 00:32:30;;;;;;;2.90;2.53;;;18.10;78.40;;;;;;4987373;28;96212;-49
2021/03/26 00:35:06;;;;;;;3.30;2.10;;;18.20;78.20;;;;;;4983166;28;96746;-57
2021/03/26 00:37:36;;;;;;;3.28;2.67;;;18.20;78.30;;;;;;4986738;28;95418;-47
2021/03/26 00:40:11;;;;;;;3.70;2.20;;;18.20;78.20;;;;;;4982295;28;102748;-49
2021/03/26 00:42:41;;;;;;;3.58;2.83;;;18.20;78.20;;;;;;4986176;28;96390;-46
2021/03/26 00:45:16;;;;;;;3.03;2.20;;;18.20;78.20;;;;;;4982900;28;95512;-46
2021/03/26 00:47:47;;;;;;;2.38;2.17;;;18.20;78.30;;;;;;4983071;28;95920;-48
2021/03/26 00:50:23;;;;;;;2.47;2.28;;;18.20;78.20;;;;;;4983910;28;96572;-48
2021/03/26 00:52:54;;;;;;;6.53;2.60;;;18.30;78.10;;;;;;4989460;28;99104;-46
2021/03/26 00:55:25;;;;;;;4.13;2.33;;;18.40;78.30;;;;;;4983941;28;102879;-46
2021/03/26 00:57:55;;;;;;;2.22;1.65;;;18.30;77.90;;;;;;4986900;28;95936;-48
2021/03/26 01:00:27;;;;;;;2.75;2.22;;;18.40;77.90;;;;;;4983523;28;95510;-46
2021/03/26 01:02:56;;;;;;;;;;;18.40;77.80;;;;;;4986783;28;96097;-46
2021/03/26 01:05:35;;;;;;;2.30;2.10;;;18.40;77.70;;;;;;4983492;28;96011;-46
2021/03/26 01:08:07;;;;;;;2.78;1.67;;;18.50;77.60;;;;;;4986566;28;96000;-48
2021/03/26 01:10:41;;;;;;;2.17;1.95;;;18.50;77.70;;;;;;4985266;28;95970;-47
2021/03/26 01:13:16;;;;;;;2.25;2.05;;;18.50;77.90;;;;;;4997266;28;96199;-49
2021/03/26 01:15:49;;;;;;;3.35;1.92;;;18.50;77.90;;;;;;4984684;28;95874;-49
2021/03/26 01:18:25;;;;;;;2.85;1.92;;;18.60;77.90;;;;;;4986158;28;95648;-46
2021/03/26 01:20:57;;;;;;;2.90;2.30;;;18.60;77.60;;;;;;4986991;28;95735;-47
2021/03/26 01:23:29;;;;;;;2.50;2.20;;;18.70;77.60;;;;;;4982685;28;98747;-45
2021/03/26 01:26:01;;;;;;;2.28;2.03;;;18.70;77.70;;;;;;4984977;28;96533;-46
2021/03/26 01:28:52;;;;;;;3.53;2.00;;;18.70;77.60;;;;;;4984414;28;95474;-44
2021/03/26 01:31:31;;;;;;;2.97;1.85;;;18.80;77.60;;;;;;4981127;28;95695;-46
2021/03/26 01:34:05;;;;;;;3.00;1.80;;;18.90;77.40;;;;;;4988410;28;96196;-46
2021/03/26 01:36:40;;;;;;;5.55;2.40;;;18.90;77.40;;;;;;4986383;28;95895;-47
2021/03/26 01:39:14;;;;;;;3.30;2.10;;;18.90;77.10;;;;;;4985506;28;95229;-43
2021/03/26 01:41:50;;;;;;;2.10;1.65;;;18.90;77.10;;;;;;5000249;28;95370;-45
2021/03/26 01:44:26;;;;;;;3.20;2.00;;;19.00;77.10;;;;;;4981938;28;96805;-45
2021/03/26 01:47:16;;;;;;;3.38;2.05;;;19.00;77.00;;;;;;4997250;28;96324;-45
2021/03/26 01:49:50;;;;;;;2.00;1.67;;;19.10;77.00;;;;;;4987500;28;95849;-43
2021/03/26 01:52:21;;;;;;;2.55;1.83;;;19.20;77.00;;;;;;4990398;28;95932;-42
2021/03/26 01:54:53;;;;;;;2.63;2.00;;;19.20;76.90;;;;;;4976691;28;98198;-45
2021/03/26 01:57:22;;;;;;;1.83;1.73;;;19.20;76.90;;;;;;4979751;28;95429;-43
2021/03/26 02:00:15;;;;;;;1.70;1.60;;;19.20;76.90;;;;;;4984315;28;95255;-46
2021/03/26 02:02:47;;;;;;;2.67;1.38;;;19.20;76.80;;;;;;4981125;28;96097;-44
2021/03/26 02:05:41;;;;;;;3.42;1.83;;;19.30;76.70;;;;;;4985582;28;99273;-44
2021/03/26 02:08:40;;;;;;;2.17;1.52;;;19.50;76.70;;;;;;4980267;28;96288;-47
2021/03/26 02:11:35;;;;;;;1.52;1.42;;;19.60;76.30;;;;;;4980634;28;95334;-46
2021/03/26 02:14:19;;;;;;;2.42;1.50;;;19.80;76.10;;;;;;4980293;28;95839;-46
2021/03/26 02:16:53;;;;;;;3.60;1.50;;;19.90;75.90;;;;;;4983401;28;98483;-45
2021/03/26 02:19:32;;;;;;;2.08;1.65;;;19.90;75.80;;;;;;4981954;28;98159;-43
2021/03/26 02:22:03;;;;;;;2.35;1.45;;;20.10;75.60;;;;;;4985804;28;95610;-48
2021/03/26 02:24:32;;;;;;;1.40;1.30;;;20.10;75.60;;;;;;5000413;28;97545;-44
2021/03/26 02:27:16;;;;;;;1.48;1.38;;;20.20;75.40;;;;;;5001061;28;96779;-50
2021/03/26 02:29:48;;;;;;;2.08;1.48;;;20.30;75.30;;;;;;5001938;28;96977;-48
2021/03/26 02:32:28;;;;;;;2.30;1.48;;;20.30;75.10;;;;;;4989093;28;95615;-44
2021/03/26 02:35:37;;;;;;;1.58;1.10;;;20.40;75.00;;;;;;4985544;28;95766;-43
2021/03/26 02:38:35;;;;;;;2.20;1.45;;;20.50;74.90;;;;;;4979415;28;96426;-43
2021/03/26 02:41:43;;;;;;;1.35;1.25;;;20.50;74.90;;;;;;4999372;28;101436;-44
2021/03/26 02:44:31;;;;;;;2.42;1.60;;;20.70;74.90;;;;;;5000507;28;98436;-46
2021/03/26 02:47:15;;;;;;;1.90;1.65;;;20.70;74.80;;;;;;4993745;28;96235;-43
2021/03/26 02:50:09;;;;;;;4.60;2.13;;;20.70;73.60;;;;;;5004428;28;97021;-46
2021/03/26 02:52:58;;;;;;;1.90;1.80;;;20.70;73.40;;;;;;4995344;28;95958;-44
2021/03/26 02:56:01;;;;;;;4.68;1.88;;;20.60;73.60;;;;;;4988761;28;96425;-45
2021/03/26 02:58:47;;;;;;;2.53;1.60;;;20.50;73.80;;;;;;4993341;28;98133;-43
2021/03/26 03:01:24;;;;;;;2.22;1.55;;;20.50;74.00;;;;;;4996941;28;96210;-44
2021/03/26 03:04:01;;;;;;;2.17;1.63;;;20.40;74.20;;;;;;4999058;28;95771;-45
2021/03/26 03:06:37;;;;;;;1.67;1.50;;;20.40;74.30;;;;;;4994325;28;95691;-56
2021/03/26 03:09:29;;;;;;;1.42;1.23;;;20.40;74.40;;;;;;4994612;28;95731;-51
2021/03/26 03:12:12;;;;;;;2.28;1.42;;;20.40;74.50;;;;;;4986375;28;95981;-52
2021/03/26 03:15:08;;;;;;;3.67;1.80;;;20.40;74.50;;;;;;4993634;28;95642;-52
2021/03/26 03:17:51;;;;;;;1.48;1.38;;;20.40;74.60;;;;;;5006969;28;95803;-53
2021/03/26 03:20:36;;;;;;;3.45;1.60;;;20.40;74.60;;;;;;4989329;28;95897;-49
2021/03/26 03:23:12;;;;;;;1.55;1.45;;;20.40;74.60;;;;;;4990625;28;96363;-49
2021/03/26 03:26:31;;;;;;;1.58;1.48;;;20.30;74.60;;;;;;4972508;28;96267;-48
2021/03/26 03:29:36;;;;;;;3.65;1.88;;;20.40;75.00;;;;;;5000103;28;95838;-48
2021/03/26 03:32:53;;;;;;;4.32;1.77;;;20.40;75.00;;;;;;4979095;28;95872;-48
2021/03/26 03:35:49;;;;;;;3.35;1.70;;;20.40;75.00;;;;;;4998624;28;97985;-48
2021/03/26 03:38:53;;;;;;;3.38;1.55;;;20.40;75.20;;;;;;4983218;28;96746;-47
2021/03/26 03:41:57;;;;;;;5.43;2.03;;;20.40;75.30;;;;;;4982685;28;95926;-44
2021/03/26 03:45:00;;;;;;;3.65;1.77;;;20.50;75.40;;;;;;4986242;28;95706;-47
2021/03/26 03:48:12;;;;;;;4.40;1.63;;;20.50;75.40;;;;;;4999776;28;98444;-48
2021/03/26 03:50:57;;;;;;;3.28;1.40;;;20.60;75.40;;;;;;4985692;28;96181;-49
2021/03/26 03:53:43;;;;;;;2.20;1.75;;;20.60;75.20;;;;;;4993642;28;95493;-50
2021/03/26 03:56:44;;;;;;;2.50;1.73;;;20.60;75.30;;;;;;5001743;28;95995;-49
2021/03/26 03:59:24;;;;;;;2.70;1.90;;;20.60;75.30;;;;;;4996714;27;97328;-49
2021/03/26 04:02:24;;;;;;;3.05;1.42;;;20.60;75.40;;;;;;4985820;28;95960;-52
2021/03/26 04:05:19;;;;;;;3.05;1.52;;;20.80;75.00;;;;;;4988198;28;97128;-51
2021/03/26 04:08:20;;;;;;;6.95;1.83;;;20.90;74.60;;;;;;4987788;28;95924;-53
2021/03/26 04:11:03;;;;;;;3.13;1.40;;;20.90;74.70;;;;;;4988665;28;96323;-52
2021/03/26 04:13:40;;;;;;;1.83;1.48;;;20.90;75.00;;;;;;4995910;28;97526;-51
2021/03/26 04:16:14;;;;;;;3.63;1.27;;;21.00;74.80;;;;;;5001857;28;95953;-49
2021/03/26 04:18:52;;;;;;;4.32;1.50;;;21.00;74.50;;;;;;4998078;28;95799;-49
2021/03/26 04:21:34;;;;;;;3.70;1.90;;;21.00;74.60;;;;;;4999742;28;96809;-52
2021/03/26 04:24:23;;;;;;;3.20;1.92;;;20.90;74.60;;;;;;4998816;28;95726;-48
2021/03/26 04:27:11;;;;;;;2.38;1.88;;;20.90;74.70;;;;;;4978844;28;95292;-48
2021/03/26 04:30:11;;;;;;;3.70;2.03;;;20.90;74.80;;;;;;4990265;28;97980;-49
2021/03/26 04:32:51;;;;;;;1.80;1.40;;;20.90;74.80;;;;;;4982404;28;97021;-47
2021/03/26 04:35:26;;;;;;;1.85;1.73;;;21.00;74.90;;;;;;4980652;28;97654;-48
2021/03/26 04:38:02;;;;;;;2.33;1.50;;;21.10;74.60;;;;;;4987465;28;95812;-49
2021/03/26 04:40:44;;;;;;;2.78;1.42;;;21.20;74.50;;;;;;4981832;28;95585;-49
2021/03/26 04:43:22;;;;;;;1.60;1.35;;;21.30;74.40;;;;;;4986345;28;96195;-47
2021/03/26 04:46:07;;;;;;;1.90;1.48;;;21.40;74.20;;;;;;4988383;28;97385;-50
2021/03/26 04:49:06;;;;;;;1.75;1.58;;;21.40;74.10;;;;;;4985808;28;95377;-55
2021/03/26 04:51:58;;;;;;;2.00;1.40;;;21.50;74.30;;;;;;5003150;28;98822;-48
2021/03/26 04:55:04;;;;;;;3.13;1.85;;;21.50;74.00;;;;;;5000620;28;99017;-48
2021/03/26 04:58:01;;;;;;;2.22;1.48;;;21.60;73.90;;;;;;4987362;28;95672;-53
2021/03/26 05:01:01;;;;;;;2.03;1.50;;;21.70;73.90;;;;;;4987493;28;95897;-52
2021/03/26 05:03:37;;;;;;;1.52;1.27;;;21.80;73.70;;;;;;4992639;28;97645;-47
2021/03/26 05:06:30;;;;;;;1.75;1.42;;;21.80;73.60;;;;;;4993425;28;98478;-49
2021/03/26 05:09:21;;;;;;;2.35;1.55;;;21.80;73.60;;;;;;4999483;28;97783;-49
2021/03/26 05:12:24;;;;;;;1.70;1.20;;;21.90;73.30;;;;;;4993124;28;96327;-50
2021/03/26 05:15:11;;;;;;;2.05;1.35;;;21.90;73.30;;;;;;4985579;28;95402;-47
2021/03/26 05:18:05;;;;;;;1.50;1.40;;;22.00;73.30;;;;;;5000073;28;98828;-50
2021/03/26 05:20:54;;;;;;;1.20;1.00;;;22.00;73.20;;;;;;4974952;28;95976;-46
2021/03/26 05:24:07;;;;;;;2.22;1.30;;;22.00;73.20;;;;;;4980283;28;96103;-47
2021/03/26 05:26:57;;;;;;;1.55;1.42;;;22.00;73.10;;;;;;4981937;28;95830;-52
2021/03/26 05:29:51;;;;;;;4.70;2.20;;;22.10;73.10;;;;;;4980481;28;97608;-47
2021/03/26 05:32:47;;;;;;;2.28;1.55;;;22.00;71.40;;;;;;4979232;28;95996;-47
2021/03/26 05:35:43;;;;;;;2.78;1.70;;;21.80;72.20;;;;;;4988828;28;95818;-50
2021/03/26 05:38:48;;;;;;;3.15;1.95;;;21.60;72.80;;;;;;4968133;28;95871;-50
2021/03/26 05:41:52;;;;;;;4.18;1.52;;;21.60;73.10;;;;;;4978007;28;95843;-51
2021/03/26 05:45:01;;;;;;;2.15;1.45;;;21.50;74.10;;;;;;4949914;28;95965;-50
2021/03/26 05:48:25;;;;;;;6.07;1.67;;;21.50;73.40;;;;;;4982457;28;95799;-51
2021/03/26 05:51:21;;;;;;;2.53;1.52;;;21.50;73.70;;;;;;4993394;28;96027;-50
2021/03/26 05:54:01;;;;;;;4.82;1.63;;;21.50;73.80;;;;;;4984931;28;96596;-53
2021/03/26 05:57:01;;;;;;;4.40;1.63;;;21.50;73.60;;;;;;4980557;28;95701;-55
2021/03/26 06:00:01;;;;;;;2.60;1.58;;;21.60;73.30;;;;;;5004027;28;95770;-53
2021/03/26 06:03:08;;;;;;;2.25;1.67;;;21.60;73.50;;;;;;4983046;28;95970;-50
2021/03/26 06:06:53;;;;;;;1.58;1.40;;;21.50;73.50;;;;;;4991747;28;96479;-52
2021/03/26 06:10:09;;;;;;;3.00;1.83;;;21.50;73.60;;;;;;4962359;28;96074;-50
2021/03/26 06:13:07;;;;;;;3.95;1.77;;;21.50;73.80;;;;;;4959274;28;96607;-49
2021/03/26 06:16:13;;;;;;;1.77;1.42;;;21.50;73.80;;;;;;4980396;28;95885;-51
2021/03/26 06:19:30;;;;;;;2.83;1.95;;;21.50;74.00;;;;;;4939890;28;95902;-50
2021/03/26 06:22:22;;;;;;;4.63;2.25;;;21.50;74.00;;;;;;4985427;28;95822;-52
2021/03/26 06:25:31;;;;;;;3.05;1.98;;;21.50;74.10;;;;;;5000219;28;95560;-50
2021/03/26 06:28:29;;;;;;;2.08;1.80;;;21.50;74.40;;;;;;4980865;28;95421;-50
2021/03/26 06:32:00;;;;;;;4.00;1.80;;;21.50;74.40;;;;;;4987284;28;96350;-52
2021/03/26 06:35:08;;;;;;;5.43;2.15;;;21.40;74.50;;;;;;4943896;28;95946;-53
2021/03/26 06:37:52;;;;;;;5.53;1.98;;;21.40;74.50;;;;;;4986155;28;95736;-48
2021/03/26 06:40:42;;;;;;;2.95;1.70;;;21.50;74.80;;;;;;4981982;28;95597;-52
2021/03/26 06:43:43;;;;;;;1.90;1.48;;;21.50;74.70;;;;;;4986348;28;97100;-51
2021/03/26 06:46:19;;;;;;;1.83;1.63;;;21.50;74.50;;;;;;4984727;28;95932;-52
2021/03/26 06:49:28;;;;;;;5.28;1.95;;;21.50;74.30;;;;;;4980846;28;98990;-50
2021/03/26 06:52:34;;;;;;;3.78;1.67;;;21.50;74.30;;;;;;4988579;28;97963;-51
2021/03/26 06:55:31;;;;;;;4.30;1.45;;;21.40;74.00;;;;;;4994824;28;98475;-50
2021/03/26 06:58:38;;;;;;;3.13;1.77;;;21.30;74.10;;;;;;4990158;28;96730;-51
2021/03/26 07:01:26;;;;;;;8.88;1.85;;;21.30;74.40;;;;;;4991274;28;96091;-51
2021/03/26 07:04:32;;;;;;;2.78;1.70;;;21.30;74.60;;;;;;4980360;28;95764;-51
2021/03/26 07:07:11;;;;;;;2.75;1.85;;;21.20;74.70;;;;;;4983426;28;96864;-50
2021/03/26 07:09:52;;;;;;;3.03;1.80;;;21.20;74.90;;;;;;4985972;28;97237;-52
2021/03/26 07:12:41;;;;;;;2.45;1.73;;;21.20;74.90;;;;;;4996607;28;95169;-51
2021/03/26 07:15:26;;;;;;;3.92;1.63;;;21.20;75.10;;;;;;4986005;28;95258;-53
2021/03/26 07:18:10;;;;;;;3.22;2.13;;;21.20;75.20;;;;;;4984210;28;96374;-52
2021/03/26 07:21:11;;;;;;;3.42;2.15;;;21.20;75.40;;;;;;4978445;28;96402;-50
2021/03/26 07:24:04;;;;;;;2.80;2.03;;;21.20;75.70;;;;;;4984820;28;95273;-50
2021/03/26 07:27:34;;;;;;;4.07;2.33;;;21.10;75.80;;;;;;4990053;28;95852;-50
2021/03/26 07:30:29;;;;;;;2.75;2.22;;;21.10;76.10;;;;;;4979233;28;100296;-51
2021/03/26 07:33:20;;;;;;;3.22;2.22;;;21.20;76.30;;;;;;4984266;28;96119;-51
2021/03/26 07:36:11;;;;;;;2.78;1.90;;;21.20;76.40;;;;;;4977516;28;95722;-53
2021/03/26 07:38:58;;;;;;;3.60;2.25;;;21.20;76.70;;;;;;4983951;28;95780;-51
2021/03/26 07:42:08;;;;;;;2.80;2.22;;;21.20;76.90;;;;;;4981101;28;96750;-52
2021/03/26 07:45:02;;;;;;;2.23;1.50;;;21.20;76.90;;;;;;4984259;28;96067;-50
2021/03/26 07:47:51;;;;;;;3.25;2.10;;;21.20;76.80;;;;;;4963690;28;96295;-51
2021/03/26 07:50:47;;;;;;;4.68;2.38;;;21.20;77.00;;;;;;4978114;28;95880;-50
2021/03/26 07:53:36;;;;;;;3.15;2.03;;;21.20;76.90;;;;;;4978437;28;96809;-51
2021/03/26 07:56:18;;;;;;;2.38;1.60;;;21.10;77.00;;;;;;4980462;28;96045;-50
2021/03/26 07:58:47;;;;;;;;;;;21.10;77.00;;;;;;4983049;28;96184;-50
2021/03/26 08:01:29;;;;;;;2.08;1.58;;;21.10;76.90;;;;;;4990901;28;95546;-50
2021/03/26 08:04:25;;;;;;;2.05;1.73;;;21.10;76.90;;;;;;4986274;28;96359;-50
2021/03/26 08:07:05;;;;;;;1.70;1.60;;;21.10;77.00;;;;;;4979263;28;96435;-50
2021/03/26 08:09:47;;;;;;;1.50;1.40;;;21.00;76.90;;;;;;4994628;28;95942;-51
2021/03/26 08:12:55;;;;;;;1.88;1.67;;;21.10;77.00;;;;;;4981570;28;96043;-51
2021/03/26 08:15:56;;;;;;;1.98;1.60;;;21.00;76.90;;;;;;4993721;28;96547;-52
2021/03/26 08:18:51;;;;;;;2.70;2.20;;;21.00;76.80;;;;;;4980412;28;95952;-51
2021/03/26 08:21:46;;;;;;;1.80;1.55;;;21.00;76.80;;;;;;4982315;28;96112;-54
2021/03/26 08:24:46;;;;;;;1.88;1.70;;;20.90;76.90;;;;;;4984082;28;96150;-51
2021/03/26 08:27:25;;;;;;;4.03;1.63;;;20.90;77.00;;;;;;4984518;28;96694;-54
2021/03/26 08:30:30;;;;;;;2.88;1.40;;;20.90;77.40;;;;;;4980930;28;95853;-50
2021/03/26 08:33:43;;;;;;;1.52;1.42;;;20.90;77.10;;;;;;4983117;28;95741;-53
2021/03/26 08:36:43;;;;;;;3.05;1.45;;;20.80;77.30;;;;;;4980358;28;96080;-53
2021/03/26 08:39:25;;;;;;;3.38;1.40;;;20.80;77.10;;;;;;4984764;28;96325;-54
2021/03/26 08:42:05;;;;;;;3.92;1.48;;;20.80;77.20;;;;;;4978007;28;95940;-50
2021/03/26 08:44:36;;;;;;;1.75;1.23;;;20.80;77.20;;;;;;4977687;28;95655;-50
2021/03/26 08:47:20;;;;;;;2.28;1.48;;;20.80;77.20;;;;;;4984527;28;95729;-51
2021/03/26 08:49:53;;;;;;;2.30;1.02;;;20.80;77.80;;;;;;4983825;28;96824;-50
2021/03/26 08:52:56;;;;;;;2.45;1.38;;;20.70;77.10;;;;;;4983582;28;96208;-50
2021/03/26 08:56:01;;;;;;;1.33;1.23;;;20.70;77.20;;;;;;4992390;28;96793;-51
2021/03/26 08:59:09;;;;;;;2.40;1.67;;;20.70;77.10;;;;;;5011661;28;96082;-51
2021/03/26 09:02:10;;;;;;;1.50;1.40;;;20.70;77.00;;;;;;4980527;28;96285;-49
2021/03/26 09:04:58;;;;;;;3.15;2.15;;;20.70;76.90;;;;;;4987796;28;96136;-52
2021/03/26 09:07:53;;;;;;;2.30;2.10;;;20.70;77.00;;;;;;4995015;28;95552;-51
2021/03/26 09:11:00;;;;;;;2.28;1.40;;;20.60;76.80;;;;;;4985573;28;96793;-50
2021/03/26 09:13:49;;;;;;;1.77;1.67;;;20.60;76.80;;;;;;4992501;28;96300;-52
2021/03/26 09:16:28;;;;;;;2.67;1.95;;;20.60;76.70;;;;;;4989248;28;97257;-49
2021/03/26 09:19:21;;;;;;;2.05;1.65;;;20.60;76.70;;;;;;4984146;28;95929;-53
2021/03/26 09:21:53;;;;;;;;;;;20.50;76.80;;;;;;4987406;28;95420;-53
2021/03/26 09:24:56;;;;;;;2.70;1.60;;;20.50;76.70;;;;;;5000020;28;96221;-53
2021/03/26 09:27:38;;;;;;;1.50;1.40;;;20.50;76.60;;;;;;4994110;28;95520;-51
2021/03/26 09:30:37;;;;;;;1.13;1.02;;;20.50;76.60;;;;;;4988078;28;95996;-50
2021/03/26 09:33:08;;;;;;;1.55;1.33;;;20.50;76.60;;;;;;4991901;28;95801;-51
2021/03/26 09:35:43;;;;;;;4.45;1.73;;;20.50;76.50;;;;;;4982344;28;96095;-52
2021/03/26 09:38:14;;;;;;;1.80;1.52;;;20.50;76.50;;;;;;4987853;28;95857;-52
2021/03/26 09:41:06;;;;;;;1.45;1.30;;;20.40;76.40;;;;;;5001640;28;95880;-53
2021/03/26 09:43:51;;;;;;;2.37;1.83;;;20.40;76.50;;;;;;4991074;28;95693;-54
2021/03/26 09:46:47;;;;;;;1.40;1.30;;;20.30;76.00;;;;;;4986067;28;96035;-52
2021/03/26 09:49:37;;;;;;;2.22;1.45;;;20.30;76.20;;;;;;4989623;28;95585;-51
2021/03/26 09:52:37;;;;;;;2.17;1.65;;;20.30;76.60;;;;;;4980020;28;95442;-54
2021/03/26 09:55:13;;;;;;;2.63;1.80;;;20.30;76.40;;;;;;4982002;28;96097;-54
2021/03/26 09:57:57;;;;;;;3.30;1.90;;;20.30;76.50;;;;;;4993806;28;95871;-52
2021/03/26 10:00:49;;;;;;;2.03;1.42;;;20.30;76.80;;;;;;4994788;28;96332;-50
2021/03/26 10:03:38;;;;;;;2.92;1.70;;;20.30;76.60;;;;;;4986060;28;95301;-49
2021/03/26 10:06:45;;;;;;;2.03;1.83;;;20.30;76.50;;;;;;4986899;28;95338;-49
2021/03/26 10:09:42;;;;;;;3.13;1.45;;;20.30;76.40;;;;;;4992173;28;96281;-49
2021/03/26 10:12:25;;;;;;;2.35;2.00;;;20.30;76.50;;;;;;4991811;28;96307;-51
2021/03/26 10:15:09;;;;;;;2.40;1.85;;;20.20;76.40;;;;;;4998397;28;95373;-49
2021/03/26 10:17:59;;;;;;;3.28;2.10;;;20.30;76.50;;;;;;4992276;28;97804;-52
2021/03/26 10:20:51;;;;;;;2.03;1.58;;;20.20;76.40;;;;;;4999684;28;96062;-49
2021/03/26 10:23:36;;;;;;;1.95;1.40;;;20.20;76.40;;;;;;4990547;28;95863;-49
2021/03/26 10:26:31;;;;;;;1.90;1.80;;;20.20;76.40;;;;;;4986514;28;95770;-49
2021/03/26 10:29:14;;;;;;;2.25;1.65;;;20.20;76.50;;;;;;4990932;28;95964;-50
2021/03/26 10:31:50;;;;;;;2.15;1.92;;;20.10;76.40;;;;;;4991851;28;96194;-50
2021/03/26 10:34:35;;;;;;;2.15;1.80;;;20.10;76.40;;;;;;4989430;28;95988;-49
2021/03/26 10:37:37;;;;;;;4.13;1.70;;;20.10;76.40;;;;;;4996254;28;96286;-48
2021/03/26 10:40:39;;;;;;;3.05;2.22;;;20.00;76.40;;;;;;4991741;28;95705;-49
2021/03/26 10:43:13;;;;;;;1.83;1.70;;;20.00;76.40;;;;;;4983390;28;96680;-49
2021/03/26 10:45:57;;;;;;;2.90;1.88;;;20.00;76.40;;;;;;4999669;28;95876;-50
2021/03/26 10:48:49;;;;;;;2.90;2.25;;;20.00;76.50;;;;;;4990835;28;95780;-48
2021/03/26 10:51:35;;;;;;;3.17;2.25;;;19.90;76.40;;;;;;4996191;28;95737;-51
2021/03/26 10:54:26;;;;;;;2.67;2.15;;;19.90;76.50;;;;;;4990911;28;96726;-51
2021/03/26 10:57:26;;;;;;;2.20;2.00;;;19.90;76.50;;;;;;4996010;28;95826;-49
2021/03/26 10:59:55;;;;;;;3.10;2.30;;;19.90;76.50;;;;;;4987392;28;95685;-51
2021/03/26 11:03:03;;;;;;;2.60;2.28;;;19.80;76.40;;;;;;4992502;28;95388;-52
2021/03/26 11:06:06;;;;;;;3.28;2.50;;;19.80;76.50;;;;;;4943474;28;96192;-51
2021/03/26 11:08:51;;;;;;;5.55;2.20;;;19.80;76.50;;;;;;4992525;28;96053;-49
2021/03/26 11:11:42;;;;;;;3.58;1.92;;;19.80;76.50;;;;;;4997726;28;95865;-49
2021/03/26 11:14:35;;;;;;;3.23;2.33;;;19.70;76.60;;;;;;4989062;28;95735;-51
2021/03/26 11:17:19;;;;;;;2.20;1.70;;;19.70;76.50;;;;;;4991764;28;96110;-52
2021/03/26 11:20:09;;;;;;;4.15;2.20;;;19.70;76.50;;;;;;4991935;28;95719;-52
2021/03/26 11:22:50;;;;;;;2.28;1.88;;;19.70;76.50;;;;;;4991470;28;95382;-49
2021/03/26 11:25:31;;;;;;;3.20;2.33;;;19.60;76.50;;;;;;4987212;28;95714;-49
2021/03/26 11:28:03;;;;;;;;;;;19.70;76.60;;;;;;4993108;28;96144;-53
2021/03/26 11:30:59;;;;;;;2.92;2.58;;;19.60;76.50;;;;;;4984954;28;95625;-53
2021/03/26 11:33:38;;;;;;;4.13;2.20;;;19.60;76.60;;;;;;4992124;28;95943;-51
2021/03/26 11:36:34;;;;;;;2.97;1.95;;;19.60;76.70;;;;;;4992307;28;95803;-49
2021/03/26 11:39:31;;;;;;;4.03;2.00;;;19.50;76.60;;;;;;4993593;28;96200;-49
2021/03/26 11:42:08;;;;;;;2.00;1.80;;;19.50;76.60;;;;;;4989170;28;95927;-51
2021/03/26 11:45:05;;;;;;;2.25;1.90;;;19.50;76.70;;;;;;4991143;28;95966;-50
2021/03/26 11:47:40;;;;;;;2.45;1.83;;;19.50;76.60;;;;;;4988488;28;95512;-55
2021/03/26 11:50:35;;;;;;;4.00;1.90;;;19.50;76.50;;;;;;4966573;28;98996;-54
2021/03/26 11:53:32;;;;;;;2.70;2.20;;;19.40;77.10;;;;;;5006235;28;95921;-51
2021/03/26 11:56:26;;;;;;;2.35;2.10;;;19.50;77.40;;;;;;4991012;28;96362;-54
2021/03/26 11:59:20;;;;;;;2.40;1.80;;;19.70;77.20;;;;;;4988187;28;95988;-50
2021/03/26 12:02:08;;;;;;;1.75;1.60;;;19.90;77.00;;;;;;4985907;28;96031;-53
2021/03/26 12:04:49;;;;;;;2.38;2.08;;;20.10;76.60;;;;;;4987556;28;95323;-55
2021/03/26 12:07:47;;;;;;;2.53;1.77;;;20.30;76.10;;;;;;4985038;28;95910;-57
2021/03/26 12:10:51;;;;;;;6.47;1.90;;;20.50;75.50;;;;;;4988887;28;95739;-55
2021/03/26 12:13:35;;;;;;;1.65;1.55;;;20.70;75.10;;;;;;4985118;28;96006;-57
2021/03/26 12:16:29;;;;;;;3.65;2.08;;;20.90;74.70;;;;;;4990221;28;97085;-56
2021/03/26 12:19:15;;;;;;;1.10;1.08;;;21.00;74.20;;;;;;4988870;28;95383;-55
2021/03/26 12:22:16;;;;;;;1.48;1.38;;;21.20;73.80;;;;;;4982102;28;95913;-54
2021/03/26 12:24:56;;;;;;;1.95;1.70;;;21.30;73.50;;;;;;4988890;28;96046;-56
2021/03/26 12:27:35;;;;;;;1.42;1.33;;;21.40;73.20;;;;;;4983261;28;95698;-56
2021/03/26 12:30:16;;;;;;;1.77;1.67;;;21.60;72.90;;;;;;4986698;28;95548;-56
2021/03/26 12:32:58;;;;;;;2.17;1.77;;;21.60;72.60;;;;;;4985960;28;97026;-56
2021/03/26 12:35:51;;;;;;;2.17;1.95;;;21.70;72.40;;;;;;4988425;28;96432;-55
2021/03/26 12:39:09;;;;;;;2.03;1.50;;;21.80;72.20;;;;;;4983320;28;98697;-55
2021/03/26 12:41:40;;;;;;;2.00;1.80;;;21.90;71.80;;;;;;4943494;28;95815;-53
2021/03/26 12:44:12;;;;;;;;;;;22.00;71.70;;;;;;4984477;28;95896;-53
2021/03/26 12:46:51;;;;;;;1.83;1.65;;;22.00;71.50;;;;;;4988456;28;96954;-53
2021/03/26 12:50:05;;;;;;;3.07;1.90;;;22.00;71.40;;;;;;4986347;28;95960;-55
2021/03/26 12:52:42;;;;;;;2.25;1.77;;;22.20;71.20;;;;;;4988136;28;95844;-56
2021/03/26 12:55:33;;;;;;;2.85;2.05;;;22.20;71.00;;;;;;4988151;28;95815;-51
2021/03/26 12:58:12;;;;;;;2.00;1.70;;;22.30;70.80;;;;;;4983765;28;96111;-57
2021/03/26 13:01:07;;;;;;;1.80;1.48;;;22.40;70.70;;;;;;4990561;28;96567;-56
2021/03/26 13:03:57;;;;;;;2.40;1.88;;;22.40;70.60;;;;;;4983630;28;95666;-55
2021/03/26 13:06:36;;;;;;;2.60;2.10;;;22.50;70.50;;;;;;4989879;28;96052;-56
2021/03/26 13:09:41;;;;;;;2.33;2.13;;;22.50;70.30;;;;;;4984969;28;96131;-57
2021/03/26 13:12:34;;;;;;;2.20;2.00;;;22.50;70.20;;;;;;4987202;28;96066;-57
2021/03/26 13:15:22;;;;;;;2.08;1.95;;;22.60;70.10;;;;;;4986503;28;95903;-57
2021/03/26 13:18:11;;;;;;;2.08;1.88;;;22.60;69.90;;;;;;4987728;28;96601;-55
2021/03/26 13:21:13;;;;;;;1.98;1.77;;;22.80;69.90;;;;;;4986717;28;96028;-56
2021/03/26 13:23:45;;;;;;;3.30;2.28;;;22.80;69.60;;;;;;4989918;28;96362;-55
2021/03/26 13:26:21;;;;;;;2.28;1.98;;;22.80;69.60;;;;;;4983090;28;97183;-56
2021/03/26 13:29:24;;;;;;;2.35;2.08;;;22.90;69.50;;;;;;4985210;28;97585;-56
2021/03/26 13:31:59;;;;;;;2.55;2.13;;;22.90;69.30;;;;;;4988483;28;97314;-54
2021/03/26 13:34:38;;;;;;;2.38;2.17;;;23.00;69.30;;;;;;4986422;28;96281;-56
2021/03/26 13:37:20;;;;;;;2.70;2.25;;;23.00;69.10;;;;;;4989187;28;98555;-55
2021/03/26 13:40:12;;;;;;;3.60;2.15;;;23.00;69.00;;;;;;4986351;28;96040;-56
2021/03/26 13:42:46;;;;;;;2.47;1.90;;;23.10;68.90;;;;;;4987753;28;96483;-56
2021/03/26 13:45:27;;;;;;;2.53;2.33;;;23.10;68.80;;;;;;4983686;28;95470;-55
2021/03/26 13:48:16;;;;;;;2.67;2.20;;;23.10;68.90;;;;;;5002932;28;95350;-56
2021/03/26 13:51:13;;;;;;;3.95;2.30;;;23.20;68.80;;;;;;4984063;28;96379;-57
2021/03/26 13:53:55;;;;;;;2.30;1.90;;;23.20;68.70;;;;;;4988946;28;97044;-56
2021/03/26 13:56:33;;;;;;;2.30;2.10;;;23.30;68.50;;;;;;4984798;28;95320;-53
2021/03/26 13:59:24;;;;;;;2.38;1.98;;;23.30;68.50;;;;;;4986919;28;95311;-55
2021/03/26 14:01:56;;;;;;;2.72;2.28;;;23.30;68.50;;;;;;5000310;28;96028;-59
2021/03/26 14:04:37;;;;;;;2.60;2.40;;;23.10;68.80;;;;;;4974805;28;97922;-59
2021/03/26 14:07:20;;;;;;;3.58;2.90;;;23.00;69.50;;;;;;4982986;28;95990;-54
2021/03/26 14:10:13;;;;;;;3.80;2.75;;;22.80;68.60;;;;;;4989074;28;95732;-54
2021/03/26 14:12:49;;;;;;;3.55;2.78;;;22.50;68.10;;;;;;4992044;28;97303;-53
2021/03/26 14:15:25;;;;;;;3.42;2.88;;;22.40;68.50;;;;;;4982007;28;96198;-53
2021/03/26 14:18:14;;;;;;;4.95;3.63;;;22.10;68.10;;;;;;4983545;28;95871;-54
2021/03/26 14:20:52;;;;;;;4.22;3.30;;;21.90;68.20;;;;;;4983983;28;95954;-53
2021/03/26 14:23:43;;;;;;;6.55;3.72;;;21.80;68.50;;;;;;4987995;28;96843;-54
2021/03/26 14:27:08;;;;;;;5.10;3.08;;;21.60;68.80;;;;;;4986647;28;96082;-56
2021/03/26 14:30:03;;;;;;;4.90;4.10;;;21.50;69.00;;;;;;4966773;28;97346;-53
2021/03/26 14:32:39;;;;;;;5.28;3.42;;;21.50;69.20;;;;;;4958080;28;95428;-53
2021/03/26 14:35:27;;;;;;;4.38;3.88;;;21.30;69.40;;;;;;4963592;28;96156;-55
2021/03/26 14:38:17;;;;;;;4.20;3.45;;;21.30;69.40;;;;;;4964000;28;95958;-54